createdAt,value
2023-01-09T00:00:06.099Z,7.50
2023-01-09T00:03:10.005Z,7.45
2023-01-09T00:06:14.682Z,7.50
2023-01-09T00:09:18.973Z,7.48
2023-01-09T00:12:22.908Z,7.46
2023-01-09T00:15:27.303Z,7.47
2023-01-09T00:18:31.639Z,7.47
2023-01-09T00:21:36.985Z,7.49
2023-01-09T00:24:40.789Z,7.51
2023-01-09T00:27:45.645Z,7.55
2023-01-09T00:30:57.039Z,7.53
2023-01-09T00:34:05.258Z,7.60
2023-01-09T00:37:12.074Z,7.70
2023-01-09T00:40:17.243Z,7.68
2023-01-09T00:43:24.028Z,7.76
2023-01-09T00:46:34.388Z,7.81
2023-01-09T00:49:38.470Z,7.70
2023-01-09T00:52:43.337Z,7.68
2023-01-09T00:55:47.558Z,7.61
2023-01-09T00:58:52.111Z,7.62
2023-01-09T01:01:56.420Z,7.62
2023-01-09T01:05:19.230Z,7.57
2023-01-09T01:08:23.274Z,7.66
2023-01-09T01:11:27.522Z,7.66
2023-01-09T01:14:31.509Z,7.63
2023-01-09T01:17:37.337Z,7.68
2023-01-09T01:20:43.041Z,7.68
2023-01-09T01:23:47.058Z,7.72
2023-01-09T01:26:51.238Z,7.67
2023-01-09T01:29:56.107Z,7.81
2023-01-09T01:33:01.020Z,7.77
2023-01-09T01:36:07.881Z,7.86
2023-01-09T01:39:12.136Z,7.87
2023-01-09T01:42:16.279Z,7.79
2023-01-09T01:45:26.442Z,7.74
2023-01-09T01:48:31.936Z,7.67
2023-01-09T01:51:44.898Z,7.77
2023-01-09T01:54:49.305Z,7.95
2023-01-09T01:57:57.656Z,7.93
2023-01-09T02:01:02.494Z,7.82
2023-01-09T02:04:07.566Z,7.91
2023-01-09T02:07:11.992Z,7.89
2023-01-09T02:10:16.025Z,7.99
2023-01-09T02:13:20.556Z,7.95
2023-01-09T02:16:41.543Z,7.92
2023-01-09T02:20:04.192Z,7.85
2023-01-09T02:23:40.427Z,7.89
2023-01-09T02:26:44.252Z,7.94
2023-01-09T02:30:13.256Z,8.00
2023-01-09T02:33:36.200Z,8.11
2023-01-09T02:37:01.636Z,8.18
2023-01-09T02:40:20.334Z,8.10
2023-01-09T02:43:26.213Z,8.18
2023-01-09T02:46:29.975Z,8.11
2023-01-09T02:49:38.407Z,8.11
2023-01-09T02:53:03.326Z,8.08
2023-01-09T02:56:33.592Z,8.11
2023-01-09T03:00:16.157Z,8.17
2023-01-09T03:03:27.506Z,8.20
2023-01-09T03:06:31.415Z,8.18
2023-01-09T03:09:39.816Z,8.24
2023-01-09T03:12:46.769Z,8.24
2023-01-09T03:15:53.244Z,8.21
2023-01-09T03:18:59.334Z,8.21
2023-01-09T03:22:03.953Z,8.19
2023-01-09T03:25:08.293Z,8.17
2023-01-09T03:28:29.553Z,8.10
2023-01-09T03:31:33.759Z,8.18
2023-01-09T03:34:38.059Z,8.07
2023-01-09T03:37:42.174Z,8.05
2023-01-09T03:40:46.358Z,8.00
2023-01-09T03:43:50.568Z,8.02
2023-01-09T03:46:54.368Z,8.05
2023-01-09T03:49:58.564Z,8.08
2023-01-09T03:53:02.509Z,7.99
2023-01-09T03:56:06.982Z,7.96
2023-01-09T03:59:11.116Z,8.03
2023-01-09T04:02:15.623Z,8.04
2023-01-09T04:05:19.986Z,7.92
2023-01-09T04:08:23.917Z,7.89
2023-01-09T04:11:27.891Z,7.92
2023-01-09T04:14:32.106Z,7.86
2023-01-09T04:17:36.450Z,7.90
2023-01-09T04:20:41.011Z,7.92
2023-01-09T04:23:45.477Z,8.03
2023-01-09T04:26:49.119Z,7.97
2023-01-09T04:29:53.319Z,7.96
2023-01-09T04:32:57.308Z,7.99
2023-01-09T04:36:01.421Z,7.94
2023-01-09T04:39:05.494Z,8.03
2023-01-09T04:42:10.655Z,7.92
2023-01-09T04:45:15.643Z,7.95
2023-01-09T04:48:19.436Z,7.87
2023-01-09T04:51:23.225Z,7.99
2023-01-09T04:54:27.747Z,7.91
2023-01-09T04:57:31.715Z,7.91
2023-01-09T05:00:35.955Z,8.01
2023-01-09T05:03:40.071Z,7.99
2023-01-09T05:06:44.285Z,7.97
2023-01-09T05:09:48.417Z,8.03
2023-01-09T05:12:52.594Z,8.00
2023-01-09T05:15:56.557Z,8.09
2023-01-09T05:19:00.827Z,8.02
2023-01-09T05:22:05.159Z,8.03
2023-01-09T05:25:08.918Z,8.07
2023-01-09T05:28:13.009Z,8.03
2023-01-09T05:31:18.588Z,8.03
2023-01-09T05:34:23.636Z,7.97
2023-01-09T05:37:27.587Z,7.94
2023-01-09T05:40:39.496Z,7.96
2023-01-09T05:43:44.068Z,7.85
2023-01-09T05:46:47.782Z,7.93
2023-01-09T05:49:51.478Z,7.96
2023-01-09T05:52:55.299Z,7.93
2023-01-09T05:55:59.555Z,7.97
2023-01-09T05:59:03.717Z,7.84
2023-01-09T06:02:07.546Z,7.84
2023-01-09T06:05:11.135Z,7.90
2023-01-09T06:08:15.109Z,7.97
2023-01-09T06:11:18.829Z,8.01
2023-01-09T06:14:23.004Z,7.98
2023-01-09T06:17:26.819Z,8.16
2023-01-09T06:20:33.923Z,8.12
2023-01-09T06:23:38.221Z,8.05
2023-01-09T06:26:42.474Z,8.04
2023-01-09T06:29:46.351Z,8.03
2023-01-09T06:32:50.691Z,7.89
2023-01-09T06:35:54.938Z,7.88
2023-01-09T06:38:59.285Z,7.86
2023-01-09T06:42:04.329Z,7.87
2023-01-09T06:45:08.879Z,7.96
2023-01-09T06:48:13.073Z,8.09
2023-01-09T06:51:17.183Z,8.03
2023-01-09T06:54:21.772Z,7.98
2023-01-09T06:57:26.246Z,8.01
2023-01-09T07:00:31.387Z,8.01
2023-01-09T07:03:35.175Z,8.07
2023-01-09T07:06:39.406Z,8.16
2023-01-09T07:09:43.358Z,8.10
2023-01-09T07:12:47.449Z,8.10
2023-01-09T07:15:53.596Z,8.10
2023-01-09T07:18:57.612Z,8.07
2023-01-09T07:22:01.984Z,8.16
2023-01-09T07:25:06.357Z,8.08
2023-01-09T07:28:10.846Z,8.12
2023-01-09T07:31:14.762Z,8.16
2023-01-09T07:34:19.526Z,8.18
2023-01-09T07:37:23.485Z,8.18
2023-01-09T07:40:27.639Z,8.23
2023-01-09T07:43:31.658Z,8.25
2023-01-09T07:46:35.680Z,8.24
2023-01-09T07:49:39.745Z,8.33
2023-01-09T07:52:47.538Z,8.32
2023-01-09T07:55:51.406Z,8.34
2023-01-09T07:58:55.328Z,8.38
2023-01-09T08:01:59.474Z,8.45
2023-01-09T08:05:03.928Z,8.48
2023-01-09T08:08:07.946Z,8.61
2023-01-09T08:11:11.781Z,8.61
2023-01-09T08:14:16.484Z,8.68
2023-01-09T08:17:20.304Z,8.82
2023-01-09T08:20:24.084Z,8.89
2023-01-09T08:23:28.366Z,8.88
2023-01-09T08:26:32.477Z,8.89
2023-01-09T08:29:36.374Z,8.90
2023-01-09T08:32:41.180Z,8.90
2023-01-09T08:35:45.473Z,8.97
2023-01-09T08:38:49.606Z,9.09
2023-01-09T08:42:12.097Z,9.03
2023-01-09T08:45:35.152Z,9.04
2023-01-09T08:48:39.380Z,9.02
2023-01-09T08:51:43.216Z,8.79
2023-01-09T08:54:47.271Z,8.72
2023-01-09T08:57:52.462Z,8.75
2023-01-09T09:00:56.588Z,8.91
2023-01-09T09:04:01.392Z,8.98
2023-01-09T09:07:05.553Z,9.03
2023-01-09T09:10:10.278Z,9.15
2023-01-09T09:13:14.402Z,9.24
2023-01-09T09:16:18.487Z,9.31
2023-01-09T09:19:22.411Z,9.39
2023-01-09T09:22:27.473Z,9.33
2023-01-09T09:25:31.490Z,9.38
2023-01-09T09:28:35.600Z,9.51
2023-01-09T09:31:39.978Z,9.73
2023-01-09T09:34:44.059Z,9.90
2023-01-09T09:37:59.544Z,10.13
2023-01-09T09:41:48.399Z,10.31
2023-01-09T09:45:14.534Z,10.31
2023-01-09T09:48:28.435Z,10.12
2023-01-09T09:51:55.742Z,9.90
2023-01-09T09:55:05.489Z,9.73
2023-01-09T09:58:21.823Z,9.58
2023-01-09T10:01:36.580Z,9.47
2023-01-09T10:04:48.870Z,9.35
2023-01-09T10:07:53.678Z,9.36
2023-01-09T10:10:57.786Z,9.48
2023-01-09T10:14:10.403Z,9.57
2023-01-09T10:17:35.559Z,9.58
2023-01-09T10:20:45.935Z,9.52
2023-01-09T10:23:53.869Z,9.40
2023-01-09T10:27:02.178Z,9.24
2023-01-09T10:30:31.109Z,9.19
2023-01-09T10:33:40.883Z,9.23
2023-01-09T10:37:03.792Z,9.28
2023-01-09T10:40:20.462Z,9.52
2023-01-09T10:43:35.032Z,9.61
2023-01-09T10:46:54.404Z,9.69
2023-01-09T10:49:59.213Z,9.73
2023-01-09T10:53:16.357Z,9.72
2023-01-09T10:56:38.821Z,9.91
2023-01-09T10:59:43.051Z,9.96
2023-01-09T11:02:48.161Z,9.91
2023-01-09T11:05:54.637Z,9.83
2023-01-09T11:09:01.307Z,9.73
2023-01-09T11:12:24.132Z,9.68
2023-01-09T11:15:30.906Z,9.52
2023-01-09T11:18:39.800Z,9.33
2023-01-09T11:21:44.314Z,9.26
2023-01-09T11:25:00.938Z,9.13
2023-01-09T11:28:06.866Z,9.09
2023-01-09T11:31:24.564Z,9.12
2023-01-09T11:34:32.373Z,9.02
2023-01-09T11:37:36.454Z,8.91
2023-01-09T11:41:02.604Z,8.84
2023-01-09T11:44:13.954Z,8.82
2023-01-09T11:47:39.457Z,8.84
2023-01-09T11:50:54.966Z,9.00
2023-01-09T11:54:04.940Z,9.13
2023-01-09T11:57:12.234Z,9.14
2023-01-09T12:00:25.506Z,9.10
2023-01-09T12:03:53.046Z,9.11
2023-01-09T12:07:18.240Z,8.95
2023-01-09T12:10:40.925Z,8.91
2023-01-09T12:13:55.989Z,9.02
2023-01-09T12:17:18.786Z,9.08
2023-01-09T12:20:28.839Z,9.31
2023-01-09T12:24:07.240Z,9.66
2023-01-09T12:27:23.383Z,9.84
2023-01-09T12:30:38.940Z,9.86
2023-01-09T12:34:09.293Z,10.00
2023-01-09T12:37:40.164Z,10.03
2023-01-09T12:41:23.003Z,10.06
2023-01-09T12:44:41.482Z,10.11
2023-01-09T12:47:50.821Z,10.25
2023-01-09T12:51:17.581Z,10.34
2023-01-09T12:54:43.838Z,10.35
2023-01-09T12:57:56.266Z,10.06
2023-01-09T13:01:03.965Z,9.89
2023-01-09T13:04:23.289Z,9.75
2023-01-09T13:07:33.907Z,9.55
2023-01-09T13:10:45.297Z,9.41
2023-01-09T13:14:14.487Z,9.45
2023-01-09T13:17:23.868Z,9.39
2023-01-09T13:20:49.644Z,9.37
2023-01-09T13:24:15.701Z,9.45
2023-01-09T13:27:23.376Z,9.42
2023-01-09T13:30:47.823Z,9.21
2023-01-09T13:33:58.194Z,9.05
2023-01-09T13:37:03.051Z,8.99
2023-01-09T13:40:26.688Z,8.91
2023-01-09T13:43:55.058Z,8.91
2023-01-09T13:47:02.210Z,9.02
2023-01-09T13:50:09.305Z,8.90
2023-01-09T13:53:19.102Z,9.02
2023-01-09T13:56:23.937Z,9.10
2023-01-09T13:59:28.732Z,9.18
2023-01-09T14:02:35.657Z,9.15
2023-01-09T14:05:39.628Z,9.04
2023-01-09T14:08:46.011Z,9.02
2023-01-09T14:12:03.041Z,8.94
2023-01-09T14:15:22.918Z,8.97
2023-01-09T14:18:31.095Z,8.90
2023-01-09T14:21:47.757Z,8.85
2023-01-09T14:24:53.381Z,8.85
2023-01-09T14:27:57.489Z,8.84
2023-01-09T14:31:07.485Z,8.79
2023-01-09T14:34:38.956Z,8.84
2023-01-09T14:37:45.908Z,8.89
2023-01-09T14:41:02.250Z,8.82
2023-01-09T14:44:19.585Z,8.76
2023-01-09T14:47:45.470Z,8.74
2023-01-09T14:50:55.443Z,8.68
2023-01-09T14:54:02.109Z,8.53
2023-01-09T14:57:34.068Z,8.47
2023-01-09T15:00:47.731Z,8.48
2023-01-09T15:03:58.808Z,8.41
2023-01-09T15:07:03.936Z,8.32
2023-01-09T15:10:14.810Z,8.26
2023-01-09T15:13:30.977Z,8.21
2023-01-09T15:16:35.114Z,8.17
2023-01-09T15:19:44.842Z,8.10
2023-01-09T15:22:52.793Z,8.10
2023-01-09T15:26:32.935Z,7.95
2023-01-09T15:29:37.320Z,7.89
2023-01-09T15:32:48.669Z,7.96
2023-01-09T15:35:59.858Z,8.05
2023-01-09T15:39:06.698Z,8.05
2023-01-09T15:42:42.506Z,7.99
2023-01-09T15:45:48.264Z,7.89
2023-01-09T15:48:55.555Z,8.11
2023-01-09T15:52:01.194Z,8.13
2023-01-09T15:55:23.452Z,8.10
2023-01-09T15:58:34.626Z,8.15
2023-01-09T16:01:40.567Z,8.15
2023-01-09T16:04:44.686Z,8.17
2023-01-09T16:07:50.637Z,8.21
2023-01-09T16:10:58.343Z,8.17
2023-01-09T16:14:20.956Z,8.20
2023-01-09T16:17:26.801Z,8.21
2023-01-09T16:20:30.906Z,8.20
2023-01-09T16:23:36.229Z,8.22
2023-01-09T16:26:40.403Z,8.24
2023-01-09T16:29:57.448Z,8.24
2023-01-09T16:33:02.787Z,8.21
2023-01-09T16:36:07.798Z,8.10
2023-01-09T16:39:18.799Z,8.07
2023-01-09T16:42:41.917Z,8.03
2023-01-09T16:45:46.298Z,7.98
2023-01-09T16:48:50.520Z,7.98
2023-01-09T16:51:55.353Z,8.08
2023-01-09T16:54:59.416Z,8.11
2023-01-09T16:58:04.197Z,8.17
2023-01-09T17:01:10.349Z,8.15
2023-01-09T17:04:17.138Z,8.24
2023-01-09T17:07:25.509Z,8.25
2023-01-09T17:10:32.117Z,8.23
2023-01-09T17:13:36.393Z,8.13
2023-01-09T17:16:43.326Z,8.01
2023-01-09T17:19:48.031Z,7.95
2023-01-09T17:22:51.664Z,7.82
2023-01-09T17:26:17.396Z,7.83
2023-01-09T17:29:21.596Z,7.71
2023-01-09T17:32:26.008Z,7.64
2023-01-09T17:35:30.155Z,7.56
2023-01-09T17:38:34.038Z,7.47
2023-01-09T17:41:38.067Z,7.45
2023-01-09T17:44:42.257Z,7.39
2023-01-09T17:47:46.379Z,7.36
2023-01-09T17:50:50.493Z,7.37
2023-01-09T17:53:54.659Z,7.30
2023-01-09T17:57:00.583Z,7.27
2023-01-09T18:00:06.421Z,7.31
2023-01-09T18:03:10.263Z,7.32
2023-01-09T18:06:16.534Z,7.28
2023-01-09T18:09:20.930Z,7.34
2023-01-09T18:12:24.949Z,7.36
2023-01-09T18:15:29.086Z,7.44
2023-01-09T18:18:33.661Z,7.50
2023-01-09T18:21:37.656Z,7.47
2023-01-09T18:24:42.069Z,7.47
2023-01-09T18:27:46.591Z,7.40
2023-01-09T18:30:51.491Z,7.38
2023-01-09T18:33:57.012Z,7.39
2023-01-09T18:37:01.225Z,7.28
2023-01-09T18:40:05.767Z,7.20
2023-01-09T18:43:11.410Z,7.16
2023-01-09T18:46:16.409Z,7.11
2023-01-09T18:49:20.221Z,7.15
2023-01-09T18:52:24.661Z,7.14
2023-01-09T18:55:28.603Z,7.09
2023-01-09T18:58:34.183Z,7.07
2023-01-09T19:01:38.512Z,7.05
2023-01-09T19:04:42.832Z,7.05
2023-01-09T19:07:47.022Z,7.16
2023-01-09T19:10:52.609Z,7.12
2023-01-09T19:13:57.124Z,7.08
2023-01-09T19:17:01.738Z,7.05
2023-01-09T19:20:07.332Z,7.02
2023-01-09T19:23:11.657Z,6.98
2023-01-09T19:26:23.971Z,6.91
2023-01-09T19:29:29.160Z,6.73
2023-01-09T19:32:33.048Z,6.73
2023-01-09T19:35:37.645Z,6.69
2023-01-09T19:38:41.933Z,6.64
2023-01-09T19:41:46.156Z,6.63
2023-01-09T19:44:50.029Z,6.65
2023-01-09T19:47:53.794Z,6.68
2023-01-09T19:51:03.115Z,6.60
2023-01-09T19:54:09.517Z,6.68
2023-01-09T19:57:13.654Z,6.64
2023-01-09T20:00:18.171Z,6.56
2023-01-09T20:03:25.520Z,6.60
2023-01-09T20:06:30.921Z,6.56
2023-01-09T20:09:35.107Z,6.61
2023-01-09T20:12:39.282Z,6.57
2023-01-09T20:15:44.437Z,6.45
2023-01-09T20:18:48.705Z,6.40
2023-01-09T20:21:53.347Z,6.40
2023-01-09T20:24:57.609Z,6.34
2023-01-09T20:28:01.956Z,6.38
2023-01-09T20:31:10.398Z,6.30
2023-01-09T20:34:15.586Z,6.28
2023-01-09T20:37:19.377Z,6.26
2023-01-09T20:40:23.352Z,6.19
2023-01-09T20:43:27.937Z,6.25
2023-01-09T20:46:57.059Z,6.20
2023-01-09T20:50:00.958Z,6.28
2023-01-09T20:53:07.756Z,6.32
2023-01-09T20:56:12.471Z,6.34
2023-01-09T20:59:20.116Z,6.28
2023-01-09T21:02:23.932Z,6.24
2023-01-09T21:05:28.256Z,6.26
2023-01-09T21:08:32.394Z,6.25
2023-01-09T21:11:36.975Z,6.23
2023-01-09T21:14:41.225Z,6.16
2023-01-09T21:17:45.284Z,6.23
2023-01-09T21:20:49.823Z,6.19
2023-01-09T21:23:57.057Z,6.12
2023-01-09T21:27:03.990Z,6.15
2023-01-09T21:30:09.926Z,6.17
2023-01-09T21:33:14.255Z,6.12
2023-01-09T21:36:18.872Z,6.13
2023-01-09T21:39:23.246Z,6.13
2023-01-09T21:42:45.822Z,6.19
2023-01-09T21:46:08.634Z,6.17
2023-01-09T21:49:12.852Z,6.12
2023-01-09T21:52:18.412Z,6.12
2023-01-09T21:55:22.613Z,6.12
2023-01-09T21:58:26.817Z,6.13
2023-01-09T22:01:30.647Z,6.11
2023-01-09T22:04:34.541Z,6.16
2023-01-09T22:07:38.551Z,6.23
2023-01-09T22:10:42.656Z,6.24
2023-01-09T22:13:48.394Z,6.26
2023-01-09T22:16:52.300Z,6.36
2023-01-09T22:19:56.478Z,6.33
2023-01-09T22:23:01.159Z,6.39
2023-01-09T22:26:14.088Z,6.45
2023-01-09T22:29:18.028Z,6.48
2023-01-09T22:32:22.528Z,6.49
2023-01-09T22:35:26.823Z,6.51
2023-01-09T22:38:30.957Z,6.42
2023-01-09T22:41:35.099Z,6.38
2023-01-09T22:44:39.238Z,6.28
2023-01-09T22:47:43.267Z,6.16
2023-01-09T22:50:47.523Z,6.16
2023-01-09T22:53:51.346Z,6.09
2023-01-09T22:56:55.493Z,6.09
2023-01-09T22:59:59.193Z,6.05
2023-01-09T23:03:03.179Z,6.00
2023-01-09T23:06:11.135Z,5.96
2023-01-09T23:09:15.148Z,5.98
2023-01-09T23:12:19.287Z,5.90
2023-01-09T23:15:23.081Z,5.98
2023-01-09T23:18:27.727Z,5.89
2023-01-09T23:21:31.734Z,5.88
2023-01-09T23:24:35.696Z,5.91
2023-01-09T23:27:40.305Z,5.88
2023-01-09T23:30:44.453Z,5.84
2023-01-09T23:33:48.861Z,5.89
2023-01-09T23:36:55.326Z,5.83
2023-01-09T23:39:59.520Z,5.84
2023-01-09T23:43:09.290Z,5.81
2023-01-09T23:46:13.291Z,5.77
2023-01-09T23:49:17.643Z,5.81
2023-01-09T23:52:21.721Z,5.76
2023-01-09T23:55:26.807Z,5.72
2023-01-09T23:58:30.653Z,5.74
